createdAt,value
2018-11-11T00:01:06.498Z,8.30
2018-11-11T00:03:37.603Z,8.30
2018-11-11T00:06:09.252Z,8.30
2018-11-11T00:08:40.558Z,8.20
2018-11-11T00:11:12.010Z,8.20
2018-11-11T00:13:43.320Z,8.20
2018-11-11T00:16:14.628Z,8.20
2018-11-11T00:18:46.281Z,8.30
2018-11-11T00:21:17.657Z,8.30
2018-11-11T00:23:49.120Z,8.30
2018-11-11T00:26:20.559Z,8.20
2018-11-11T00:28:51.843Z,8.30
2018-11-11T00:31:23.034Z,8.20
2018-11-11T00:33:54.752Z,8.20
2018-11-11T00:36:25.909Z,8.30
2018-11-11T00:38:57.560Z,8.20
2018-11-11T00:41:28.950Z,8.20
2018-11-11T00:44:00.439Z,8.20
2018-11-11T00:46:31.928Z,8.20
2018-11-11T00:49:03.415Z,8.20
2018-11-11T00:51:34.660Z,8.30
2018-11-11T00:54:05.908Z,8.20
2018-11-11T00:56:37.211Z,8.20
2018-11-11T00:59:08.807Z,8.20
2018-11-11T01:01:40.173Z,8.20
2018-11-11T01:04:11.625Z,8.20
2018-11-11T01:06:43.059Z,8.20
2018-11-11T01:09:14.402Z,8.20
2018-11-11T01:11:45.547Z,8.10
2018-11-11T01:14:17.004Z,8.20
2018-11-11T01:16:48.546Z,8.10
2018-11-11T01:19:20.160Z,8.10
2018-11-11T01:21:51.590Z,8.10
2018-11-11T01:24:22.772Z,8.20
2018-11-11T01:26:54.310Z,8.20
2018-11-11T01:29:25.453Z,8.20
2018-11-11T01:31:57.090Z,8.20
2018-11-11T01:34:28.316Z,8.20
2018-11-11T01:36:59.775Z,8.20
2018-11-11T01:39:31.301Z,8.20
2018-11-11T01:42:02.790Z,8.20
2018-11-11T01:44:34.145Z,8.20
2018-11-11T01:47:05.296Z,8.20
2018-11-11T01:49:36.577Z,8.20
2018-11-11T01:52:08.295Z,8.20
2018-11-11T01:54:39.556Z,8.20
2018-11-11T01:57:11.148Z,8.30
2018-11-11T01:59:42.400Z,8.20
2018-11-11T02:02:13.575Z,8.30
2018-11-11T02:04:44.771Z,8.30
2018-11-11T02:07:16.256Z,8.30
2018-11-11T02:09:47.399Z,8.30
2018-11-11T02:12:18.511Z,8.30
2018-11-11T02:14:49.971Z,8.30
2018-11-11T02:17:21.117Z,8.30
2018-11-11T02:19:52.384Z,8.30
2018-11-11T02:22:23.816Z,8.20
2018-11-11T02:24:55.674Z,8.20
2018-11-11T02:27:27.063Z,8.30
2018-11-11T02:29:58.446Z,8.30
2018-11-11T02:32:29.625Z,8.20
2018-11-11T02:35:00.983Z,8.20
2018-11-11T02:37:32.427Z,8.20
2018-11-11T02:40:03.987Z,8.20
2018-11-11T02:42:35.409Z,8.20
2018-11-11T02:45:08.216Z,8.20
2018-11-11T02:47:39.621Z,8.20
2018-11-11T02:50:12.839Z,8.30
2018-11-11T02:52:44.769Z,8.30
2018-11-11T02:55:16.711Z,8.30
2018-11-11T02:57:48.368Z,8.30
2018-11-11T03:00:21.654Z,8.30
2018-11-11T03:02:53.064Z,8.30
2018-11-11T03:05:24.538Z,8.30
2018-11-11T03:07:56.072Z,8.30
2018-11-11T03:10:27.320Z,8.30
2018-11-11T03:12:58.659Z,8.20
2018-11-11T03:15:29.823Z,8.20
2018-11-11T03:18:01.320Z,8.20
2018-11-11T03:20:33.238Z,8.20
2018-11-11T03:23:04.488Z,8.20
2018-11-11T03:25:35.831Z,8.30
2018-11-11T03:28:07.339Z,8.30
2018-11-11T03:30:38.686Z,8.20
2018-11-11T03:33:09.840Z,8.30
2018-11-11T03:35:41.419Z,8.30
2018-11-11T03:38:12.660Z,8.30
2018-11-11T03:40:43.849Z,8.30
2018-11-11T03:43:15.276Z,8.30
2018-11-11T03:45:46.800Z,8.20
2018-11-11T03:48:18.365Z,8.30
2018-11-11T03:50:49.831Z,8.30
2018-11-11T03:53:21.168Z,8.30
2018-11-11T03:55:52.523Z,8.30
2018-11-11T03:58:23.808Z,8.30
2018-11-11T04:00:55.253Z,8.30
2018-11-11T04:03:26.765Z,8.40
2018-11-11T04:05:58.153Z,8.40
2018-11-11T04:08:29.680Z,8.40
2018-11-11T04:11:01.134Z,8.40
2018-11-11T04:13:32.386Z,8.40
2018-11-11T04:16:03.992Z,8.40
2018-11-11T04:18:35.160Z,8.40
2018-11-11T04:21:06.476Z,8.30
2018-11-11T04:23:38.253Z,8.30
2018-11-11T04:26:09.807Z,8.40
2018-11-11T04:28:41.160Z,8.30
2018-11-11T04:31:12.325Z,8.30
2018-11-11T04:33:43.666Z,8.30
2018-11-11T04:36:14.859Z,8.30
2018-11-11T04:38:46.248Z,8.30
2018-11-11T04:41:17.344Z,8.30
2018-11-11T04:43:48.921Z,8.40
2018-11-11T04:46:20.355Z,8.30
2018-11-11T04:48:51.601Z,8.30
2018-11-11T04:51:23.103Z,8.30
2018-11-11T04:53:54.137Z,8.30
2018-11-11T04:56:25.689Z,8.30
2018-11-11T04:58:57.022Z,8.30
2018-11-11T05:01:28.414Z,8.30
2018-11-11T05:03:59.416Z,8.30
2018-11-11T05:06:30.581Z,8.40
2018-11-11T05:09:02.208Z,8.40
2018-11-11T05:11:33.667Z,8.40
2018-11-11T05:14:05.054Z,8.40
2018-11-11T05:16:36.472Z,8.30
2018-11-11T05:19:09.623Z,8.40
2018-11-11T05:21:41.366Z,8.30
2018-11-11T05:24:12.880Z,8.40
2018-11-11T05:26:44.128Z,8.40
2018-11-11T05:29:15.508Z,8.40
2018-11-11T05:31:46.750Z,8.40
2018-11-11T05:34:18.203Z,8.40
2018-11-11T05:36:49.517Z,8.40
2018-11-11T05:39:20.733Z,8.50
2018-11-11T05:41:52.300Z,8.40
2018-11-11T05:44:23.731Z,8.40
2018-11-11T05:46:55.129Z,8.40
2018-11-11T05:49:26.256Z,8.30
2018-11-11T05:51:57.768Z,8.30
2018-11-11T05:54:29.087Z,8.30
2018-11-11T05:57:00.413Z,8.30
2018-11-11T05:59:31.832Z,8.30
2018-11-11T06:02:03.038Z,8.30
2018-11-11T06:04:34.438Z,8.30
2018-11-11T06:07:05.980Z,8.20
2018-11-11T06:09:37.416Z,8.30
2018-11-11T06:12:08.837Z,8.30
2018-11-11T06:14:40.036Z,8.30
2018-11-11T06:17:12.334Z,8.30
2018-11-11T06:19:43.680Z,8.30
2018-11-11T06:22:15.939Z,8.30
2018-11-11T06:24:47.386Z,8.20
2018-11-11T06:27:18.663Z,8.30
2018-11-11T06:29:50.182Z,8.20
2018-11-11T06:32:21.921Z,8.30
2018-11-11T06:34:53.086Z,8.20
2018-11-11T06:37:24.543Z,8.20
2018-11-11T06:39:55.818Z,8.20
2018-11-11T06:42:27.301Z,8.30
2018-11-11T06:44:58.597Z,8.20
2018-11-11T06:47:30.167Z,8.20
2018-11-11T06:50:01.854Z,8.30
2018-11-11T06:52:33.126Z,8.20
2018-11-11T06:55:04.576Z,8.20
2018-11-11T06:57:35.988Z,8.20
2018-11-11T07:00:08.565Z,8.20
2018-11-11T07:02:40.885Z,8.20
2018-11-11T07:05:12.432Z,8.20
2018-11-11T07:07:44.015Z,8.20
2018-11-11T07:10:15.912Z,8.20
2018-11-11T07:12:47.132Z,8.30
2018-11-11T07:15:18.712Z,8.30
2018-11-11T07:17:49.964Z,8.30
2018-11-11T07:20:21.348Z,8.30
2018-11-11T07:22:52.599Z,8.30
2018-11-11T07:25:23.844Z,8.30
2018-11-11T07:27:55.143Z,8.30
2018-11-11T07:30:26.551Z,8.40
2018-11-11T07:32:57.882Z,8.40
2018-11-11T07:35:29.047Z,8.40
2018-11-11T07:38:00.589Z,8.50
2018-11-11T07:40:32.137Z,8.40
2018-11-11T07:43:04.409Z,8.40
2018-11-11T07:45:35.788Z,8.40
2018-11-11T07:48:07.370Z,8.40
2018-11-11T07:50:38.780Z,8.30
2018-11-11T07:53:10.149Z,8.30
2018-11-11T07:55:41.520Z,8.40
2018-11-11T07:58:12.861Z,8.40
2018-11-11T08:00:44.264Z,8.40
2018-11-11T08:03:15.552Z,8.40
2018-11-11T08:05:47.251Z,8.50
2018-11-11T08:08:18.505Z,8.50
2018-11-11T08:11:06.046Z,8.50
2018-11-11T08:13:37.395Z,8.50
2018-11-11T08:16:08.781Z,8.40
2018-11-11T08:18:40.368Z,8.40
2018-11-11T08:21:11.513Z,8.50
2018-11-11T08:23:42.931Z,8.50
2018-11-11T08:26:14.172Z,8.60
2018-11-11T08:28:45.514Z,8.50
2018-11-11T08:31:16.869Z,8.50
2018-11-11T08:33:48.558Z,8.50
2018-11-11T08:36:19.733Z,8.50
2018-11-11T08:38:51.379Z,8.50
2018-11-11T08:41:22.653Z,8.50
2018-11-11T08:43:54.121Z,8.50
2018-11-11T08:46:25.963Z,8.60
2018-11-11T08:48:57.725Z,8.70
2018-11-11T08:51:29.368Z,8.80
2018-11-11T08:54:00.596Z,8.90
2018-11-11T08:56:32.097Z,8.80
2018-11-11T08:59:03.657Z,8.90
2018-11-11T09:01:35.110Z,8.80
2018-11-11T09:04:06.914Z,8.80
2018-11-11T09:06:38.203Z,8.80
2018-11-11T09:09:10.200Z,8.80
2018-11-11T09:11:41.898Z,8.90
2018-11-11T09:14:14.510Z,8.90
2018-11-11T09:16:46.206Z,8.90
2018-11-11T09:19:17.423Z,9.00
2018-11-11T09:21:48.865Z,9.00
2018-11-11T09:24:20.608Z,9.10
2018-11-11T09:26:53.093Z,9.10
2018-11-11T09:29:24.731Z,9.20
2018-11-11T09:31:56.065Z,9.30
2018-11-11T09:34:28.248Z,9.30
2018-11-11T09:36:59.983Z,9.40
2018-11-11T09:39:31.370Z,9.40
2018-11-11T09:42:02.669Z,9.30
2018-11-11T09:44:33.908Z,9.40
2018-11-11T09:47:05.321Z,9.50
2018-11-11T09:49:36.873Z,9.60
2018-11-11T09:52:08.698Z,9.60
2018-11-11T09:54:39.768Z,9.60
2018-11-11T09:57:11.232Z,9.60
2018-11-11T09:59:42.910Z,9.60
2018-11-11T10:02:14.385Z,9.60
2018-11-11T10:04:53.494Z,9.60
2018-11-11T10:07:31.345Z,9.60
2018-11-11T10:10:08.006Z,9.70
2018-11-11T10:12:49.720Z,9.80
2018-11-11T10:15:26.473Z,9.90
2018-11-11T10:19:04.716Z,10.10
2018-11-11T10:21:46.478Z,10.10
2018-11-11T10:24:22.989Z,10.00
2018-11-11T10:27:02.145Z,10.00
2018-11-11T10:29:46.804Z,10.00
2018-11-11T10:32:53.992Z,10.10
2018-11-11T10:35:39.940Z,10.00
2018-11-11T10:38:16.119Z,10.10
2018-11-11T10:40:51.035Z,10.20
2018-11-11T10:43:29.589Z,10.20
2018-11-11T10:47:06.734Z,10.30
2018-11-11T10:49:43.676Z,10.30
2018-11-11T10:52:15.624Z,10.30
2018-11-11T10:54:46.958Z,10.30
2018-11-11T10:57:18.665Z,10.40
2018-11-11T10:59:50.293Z,10.40
2018-11-11T11:02:26.953Z,10.50
2018-11-11T11:05:03.087Z,10.50
2018-11-11T11:07:34.911Z,10.60
2018-11-11T11:10:06.492Z,10.60
2018-11-11T11:12:38.048Z,10.60
2018-11-11T11:15:10.625Z,10.70
2018-11-11T11:17:41.745Z,10.80
2018-11-11T11:20:13.458Z,10.90
2018-11-11T11:22:45.046Z,10.90
2018-11-11T11:25:16.337Z,10.90
2018-11-11T11:27:47.536Z,10.90
2018-11-11T11:30:19.156Z,10.90
2018-11-11T11:32:50.570Z,11.10
2018-11-11T11:35:22.101Z,11.00
2018-11-11T11:37:53.576Z,11.10
2018-11-11T11:40:25.405Z,11.10
2018-11-11T11:42:56.962Z,11.20
2018-11-11T11:45:28.473Z,11.30
2018-11-11T11:47:59.840Z,11.30
2018-11-11T11:50:31.274Z,11.30
2018-11-11T11:53:02.894Z,11.40
2018-11-11T11:55:34.665Z,11.50
2018-11-11T11:58:26.372Z,11.60
2018-11-11T12:00:58.066Z,11.60
2018-11-11T12:03:29.621Z,11.70
2018-11-11T12:06:01.362Z,11.90
2018-11-11T12:08:32.854Z,12.10
2018-11-11T12:11:04.187Z,12.30
2018-11-11T12:13:35.628Z,12.40
2018-11-11T12:16:07.063Z,12.50
2018-11-11T12:18:38.557Z,12.50
2018-11-11T12:21:09.903Z,12.60
2018-11-11T12:23:41.428Z,12.60
2018-11-11T12:26:12.608Z,12.60
2018-11-11T12:28:44.124Z,12.60
2018-11-11T12:31:15.956Z,12.60
2018-11-11T12:33:47.347Z,12.70
2018-11-11T12:36:18.811Z,12.90
2018-11-11T12:38:50.031Z,12.90
2018-11-11T12:41:21.502Z,12.90
2018-11-11T12:43:53.017Z,12.80
2018-11-11T12:46:24.477Z,12.60
2018-11-11T12:48:55.662Z,12.60
2018-11-11T12:51:26.794Z,12.50
2018-11-11T12:53:58.509Z,12.50
2018-11-11T12:56:30.164Z,12.40
2018-11-11T12:59:01.745Z,12.30
2018-11-11T13:01:33.361Z,12.20
2018-11-11T13:04:04.721Z,12.20
2018-11-11T13:06:36.448Z,12.20
2018-11-11T13:09:10.623Z,12.30
2018-11-11T13:11:42.279Z,12.30
2018-11-11T13:14:13.969Z,12.30
2018-11-11T13:16:45.677Z,12.30
2018-11-11T13:19:17.061Z,12.30
2018-11-11T13:21:48.810Z,12.40
2018-11-11T13:24:20.371Z,12.40
2018-11-11T13:26:51.702Z,12.40
2018-11-11T13:29:23.196Z,12.40
2018-11-11T13:31:54.880Z,12.50
2018-11-11T13:34:26.205Z,12.50
2018-11-11T13:36:57.877Z,12.50
2018-11-11T13:39:29.327Z,12.60
2018-11-11T13:42:00.724Z,12.60
2018-11-11T13:44:32.434Z,12.50
2018-11-11T13:47:04.132Z,12.60
2018-11-11T13:49:35.490Z,12.60
2018-11-11T13:52:07.620Z,12.70
2018-11-11T13:54:38.914Z,12.70
2018-11-11T13:57:10.280Z,12.60
2018-11-11T13:59:41.923Z,12.50
2018-11-11T14:02:13.444Z,12.50
2018-11-11T14:04:45.141Z,12.50
2018-11-11T14:07:16.881Z,12.60
2018-11-11T14:09:48.314Z,12.50
2018-11-11T14:12:19.725Z,12.50
2018-11-11T14:14:51.300Z,12.50
2018-11-11T14:17:23.276Z,12.50
2018-11-11T14:19:54.803Z,12.40
2018-11-11T14:22:26.156Z,12.50
2018-11-11T14:24:57.523Z,12.40
2018-11-11T14:27:29.034Z,12.40
2018-11-11T14:30:00.424Z,12.40
2018-11-11T14:32:31.716Z,12.40
2018-11-11T14:35:02.940Z,12.40
2018-11-11T14:37:35.180Z,12.30
2018-11-11T14:40:11.148Z,12.30
2018-11-11T14:42:42.631Z,12.30
2018-11-11T14:45:15.087Z,12.30
2018-11-11T14:47:47.922Z,12.20
2018-11-11T14:50:20.016Z,12.20
2018-11-11T14:52:51.635Z,12.10
2018-11-11T14:55:24.533Z,12.00
2018-11-11T14:57:56.116Z,12.00
2018-11-11T15:00:31.982Z,11.90
2018-11-11T15:03:07.509Z,11.90
2018-11-11T15:05:38.767Z,11.80
2018-11-11T15:08:10.200Z,11.80
2018-11-11T15:10:41.498Z,11.80
2018-11-11T15:13:13.921Z,11.70
2018-11-11T15:15:45.380Z,11.70
2018-11-11T15:18:16.958Z,11.60
2018-11-11T15:20:48.462Z,11.50
2018-11-11T15:23:19.837Z,11.50
2018-11-11T15:25:51.474Z,11.50
2018-11-11T15:28:23.100Z,11.40
2018-11-11T15:30:55.077Z,11.40
2018-11-11T15:33:26.668Z,11.40
2018-11-11T15:35:57.926Z,11.40
2018-11-11T15:38:29.085Z,11.40
2018-11-11T15:41:00.592Z,11.30
2018-11-11T15:43:32.064Z,11.30
2018-11-11T15:46:03.338Z,11.30
2018-11-11T15:48:34.784Z,11.30
2018-11-11T15:51:06.365Z,11.30
2018-11-11T15:53:37.939Z,11.30
2018-11-11T15:56:09.408Z,11.30
2018-11-11T15:58:40.707Z,11.30
2018-11-11T16:01:12.349Z,11.30
2018-11-11T16:03:43.789Z,11.30
2018-11-11T16:06:15.393Z,11.30
2018-11-11T16:08:47.117Z,11.30
2018-11-11T16:11:18.553Z,11.20
2018-11-11T16:13:50.213Z,11.20
2018-11-11T16:16:21.808Z,11.10
2018-11-11T16:18:52.972Z,11.10
2018-11-11T16:21:24.582Z,11.10
2018-11-11T16:23:55.792Z,11.10
2018-11-11T16:26:27.718Z,11.10
2018-11-11T16:28:59.307Z,11.10
2018-11-11T16:31:30.845Z,11.10
2018-11-11T16:34:02.673Z,11.00
2018-11-11T16:36:34.306Z,11.00
2018-11-11T16:39:07.208Z,11.10
2018-11-11T16:41:38.647Z,11.00
2018-11-11T16:44:10.039Z,11.10
2018-11-11T16:46:41.453Z,11.00
2018-11-11T16:49:12.891Z,11.10
2018-11-11T16:51:44.396Z,11.20
2018-11-11T16:54:16.162Z,11.30
2018-11-11T16:56:47.562Z,11.30
2018-11-11T16:59:19.088Z,11.20
2018-11-11T17:01:50.613Z,11.10
2018-11-11T17:04:22.409Z,11.10
2018-11-11T17:06:53.938Z,11.10
2018-11-11T17:09:25.601Z,11.00
2018-11-11T17:11:57.186Z,11.10
2018-11-11T17:14:28.653Z,11.10
2018-11-11T17:16:59.976Z,11.10
2018-11-11T17:19:31.803Z,11.10
2018-11-11T17:22:03.637Z,11.20
2018-11-11T17:24:34.857Z,11.20
2018-11-11T17:27:06.757Z,11.30
2018-11-11T17:29:38.063Z,11.30
2018-11-11T17:32:09.920Z,11.20
2018-11-11T17:34:41.502Z,11.20
2018-11-11T17:37:13.491Z,11.20
2018-11-11T17:39:44.572Z,11.20
2018-11-11T17:42:16.938Z,11.20
2018-11-11T17:44:48.639Z,11.20
2018-11-11T17:47:20.323Z,11.20
2018-11-11T17:49:51.881Z,11.10
2018-11-11T17:52:23.496Z,11.10
2018-11-11T17:54:54.705Z,11.10
2018-11-11T17:57:26.084Z,11.10
2018-11-11T17:59:57.633Z,11.00
2018-11-11T18:02:29.884Z,11.00
2018-11-11T18:05:01.606Z,11.00
2018-11-11T18:07:33.047Z,11.00
2018-11-11T18:10:04.890Z,11.00
2018-11-11T18:12:36.926Z,10.90
2018-11-11T18:15:09.079Z,10.90
2018-11-11T18:17:40.777Z,10.90
2018-11-11T18:20:15.980Z,10.80
2018-11-11T18:22:47.933Z,10.80
2018-11-11T18:25:19.772Z,10.80
2018-11-11T18:27:51.135Z,10.80
2018-11-11T18:30:27.365Z,10.80
2018-11-11T18:32:58.849Z,10.80
2018-11-11T18:35:30.640Z,10.80
2018-11-11T18:38:01.929Z,10.80
2018-11-11T18:40:33.277Z,10.70
2018-11-11T18:43:04.867Z,10.60
2018-11-11T18:45:36.440Z,10.70
2018-11-11T18:48:08.219Z,10.70
2018-11-11T18:50:40.315Z,10.70
2018-11-11T18:53:11.614Z,10.70
2018-11-11T18:55:42.941Z,10.80
2018-11-11T18:58:14.585Z,10.80
2018-11-11T19:00:46.349Z,10.70
2018-11-11T19:03:18.079Z,10.70
2018-11-11T19:09:40.058Z,10.70
2018-11-11T19:12:11.626Z,10.70
2018-11-11T19:14:43.064Z,10.70
2018-11-11T19:17:14.388Z,10.60
2018-11-11T19:19:46.064Z,10.70
2018-11-11T19:22:17.652Z,10.60
2018-11-11T19:24:51.837Z,10.60
2018-11-11T19:27:25.539Z,10.70
2018-11-11T19:29:59.179Z,10.70
2018-11-11T19:32:32.364Z,10.70
2018-11-11T19:35:06.292Z,10.60
2018-11-11T19:37:37.682Z,10.60
2018-11-11T19:40:17.212Z,10.70
2018-11-11T19:42:49.072Z,10.70
2018-11-11T19:45:21.914Z,10.80
2018-11-11T19:47:53.369Z,10.80
2018-11-11T19:50:25.796Z,10.80
2018-11-11T19:52:58.090Z,10.70
2018-11-11T19:55:29.753Z,10.70
2018-11-11T19:58:01.347Z,10.70
2018-11-11T20:00:33.520Z,10.70
2018-11-11T20:03:05.700Z,10.70
2018-11-11T20:05:37.504Z,10.70
2018-11-11T20:08:09.376Z,10.70
2018-11-11T20:10:41.095Z,10.60
2018-11-11T20:13:12.825Z,10.60
2018-11-11T20:15:44.533Z,10.50
2018-11-11T20:18:16.047Z,10.50
2018-11-11T20:20:47.466Z,10.50
2018-11-11T20:23:18.902Z,10.50
2018-11-11T20:25:50.202Z,10.50
2018-11-11T20:28:21.762Z,10.50
2018-11-11T20:30:53.134Z,10.50
2018-11-11T20:33:24.406Z,10.50
2018-11-11T20:35:55.713Z,10.50
2018-11-11T20:38:26.937Z,10.50
2018-11-11T20:40:58.305Z,10.50
2018-11-11T20:43:29.644Z,10.50
2018-11-11T20:46:01.084Z,10.50
2018-11-11T20:48:32.925Z,10.50
2018-11-11T20:51:04.656Z,10.50
2018-11-11T20:53:36.216Z,10.50
2018-11-11T20:56:08.160Z,10.50
2018-11-11T20:58:42.111Z,10.50
2018-11-11T21:01:14.119Z,10.50
2018-11-11T21:03:45.349Z,10.40
2018-11-11T21:06:16.955Z,10.30
2018-11-11T21:08:48.447Z,10.30
2018-11-11T21:11:20.147Z,10.30
2018-11-11T21:13:51.701Z,10.40
2018-11-11T21:16:23.325Z,10.40
2018-11-11T21:18:54.904Z,10.30
2018-11-11T21:21:26.306Z,10.30
2018-11-11T21:23:58.478Z,10.20
2018-11-11T21:26:30.326Z,10.20
2018-11-11T21:29:01.879Z,10.20
2018-11-11T21:31:33.252Z,10.20
2018-11-11T21:34:04.449Z,10.20
2018-11-11T21:36:35.970Z,10.20
2018-11-11T21:39:12.415Z,10.10
2018-11-11T21:41:43.995Z,10.10
2018-11-11T21:44:15.138Z,10.10
2018-11-11T21:46:46.937Z,10.10
2018-11-11T21:49:18.818Z,10.10
2018-11-11T21:51:50.134Z,10.10
2018-11-11T21:54:21.538Z,10.00
2018-11-11T21:56:53.111Z,10.00
2018-11-11T21:59:24.424Z,10.00
2018-11-11T22:01:55.700Z,10.10
2018-11-11T22:04:27.108Z,10.10
2018-11-11T22:06:58.910Z,10.20
2018-11-11T22:09:30.483Z,10.20
2018-11-11T22:12:02.194Z,10.10
2018-11-11T22:14:33.384Z,10.10
2018-11-11T22:17:04.916Z,10.00
2018-11-11T22:19:36.170Z,10.00
2018-11-11T22:22:07.679Z,10.10
2018-11-11T22:24:39.127Z,10.10
2018-11-11T22:27:10.452Z,10.10
2018-11-11T22:29:41.903Z,10.10
2018-11-11T22:32:13.344Z,10.10
2018-11-11T22:34:44.691Z,10.00
2018-11-11T22:37:15.915Z,10.00
2018-11-11T22:39:47.620Z,10.00
2018-11-11T22:42:19.124Z,9.90
2018-11-11T22:44:50.303Z,10.00
2018-11-11T22:47:21.697Z,10.10
2018-11-11T22:49:53.128Z,10.10
2018-11-11T22:52:24.626Z,10.00
2018-11-11T22:54:56.339Z,10.00
2018-11-11T22:57:27.762Z,10.00
2018-11-11T22:59:59.079Z,10.00
2018-11-11T23:02:30.648Z,10.20
2018-11-11T23:05:02.268Z,10.20
2018-11-11T23:07:33.657Z,10.10
2018-11-11T23:10:05.713Z,10.10
2018-11-11T23:12:37.127Z,10.00
2018-11-11T23:15:10.278Z,9.90
2018-11-11T23:17:41.524Z,9.90
2018-11-11T23:20:15.142Z,10.00
2018-11-11T23:22:46.460Z,9.90
2018-11-11T23:25:18.733Z,9.90
2018-11-11T23:27:50.040Z,9.90
2018-11-11T23:30:22.759Z,9.90
2018-11-11T23:32:54.003Z,9.90
2018-11-11T23:35:25.305Z,9.90
2018-11-11T23:37:56.885Z,9.90
2018-11-11T23:40:28.380Z,9.80
2018-11-11T23:42:59.833Z,9.80
2018-11-11T23:45:31.135Z,9.80
2018-11-11T23:48:02.896Z,9.80
2018-11-11T23:50:34.277Z,9.80
2018-11-11T23:53:05.698Z,9.80
2018-11-11T23:55:36.836Z,9.70
2018-11-11T23:58:08.048Z,9.70
